sensor_id;sensor_type;location;lat;lon;timestamp;P1;durP1;ratioP1;P2;durP2;ratioP2
26335;SDS011;14047;50.936;4.654;2023-06-14T00:02:09;9.73;;;5.43;;
26335;SDS011;14047;50.936;4.654;2023-06-14T00:04:35;10.48;;;5.63;;
26335;SDS011;14047;50.936;4.654;2023-06-14T00:07:03;8.48;;;5.32;;
26335;SDS011;14047;50.936;4.654;2023-06-14T00:09:29;11.10;;;5.78;;
26335;SDS011;14047;50.936;4.654;2023-06-14T00:11:55;11.68;;;5.75;;
26335;SDS011;14047;50.936;4.654;2023-06-14T00:14:21;9.38;;;5.93;;
26335;SDS011;14047;50.936;4.654;2023-06-14T00:16:47;8.82;;;5.65;;
26335;SDS011;14047;50.936;4.654;2023-06-14T00:19:13;9.80;;;5.78;;
26335;SDS011;14047;50.936;4.654;2023-06-14T00:21:39;11.32;;;5.38;;
26335;SDS011;14047;50.936;4.654;2023-06-14T00:24:05;8.70;;;5.53;;
26335;SDS011;14047;50.936;4.654;2023-06-14T00:26:32;9.68;;;5.47;;
26335;SDS011;14047;50.936;4.654;2023-06-14T00:28:58;10.18;;;6.20;;
26335;SDS011;14047;50.936;4.654;2023-06-14T00:31:25;10.00;;;5.45;;
26335;SDS011;14047;50.936;4.654;2023-06-14T00:33:53;9.82;;;6.20;;
26335;SDS011;14047;50.936;4.654;2023-06-14T00:36:19;9.65;;;6.22;;
26335;SDS011;14047;50.936;4.654;2023-06-14T00:38:45;11.98;;;5.93;;
26335;SDS011;14047;50.936;4.654;2023-06-14T00:41:11;7.65;;;6.18;;
26335;SDS011;14047;50.936;4.654;2023-06-14T00:43:37;6.65;;;5.78;;
26335;SDS011;14047;50.936;4.654;2023-06-14T00:46:03;10.65;;;6.28;;
26335;SDS011;14047;50.936;4.654;2023-06-14T00:48:29;8.75;;;6.25;;
26335;SDS011;14047;50.936;4.654;2023-06-14T00:50:57;11.15;;;6.88;;
26335;SDS011;14047;50.936;4.654;2023-06-14T00:53:27;13.80;;;7.10;;
26335;SDS011;14047;50.936;4.654;2023-06-14T00:55:54;12.38;;;7.18;;
26335;SDS011;14047;50.936;4.654;2023-06-14T00:58:21;11.30;;;7.22;;
26335;SDS011;14047;50.936;4.654;2023-06-14T01:00:47;16.10;;;7.32;;
26335;SDS011;14047;50.936;4.654;2023-06-14T01:03:14;12.40;;;7.20;;
26335;SDS011;14047;50.936;4.654;2023-06-14T01:05:44;10.00;;;7.07;;
26335;SDS011;14047;50.936;4.654;2023-06-14T01:11:07;10.98;;;6.93;;
26335;SDS011;14047;50.936;4.654;2023-06-14T01:13:42;13.25;;;7.40;;
26335;SDS011;14047;50.936;4.654;2023-06-14T01:16:10;9.73;;;5.88;;
26335;SDS011;14047;50.936;4.654;2023-06-14T01:18:37;8.60;;;6.28;;
26335;SDS011;14047;50.936;4.654;2023-06-14T01:21:04;11.10;;;6.43;;
26335;SDS011;14047;50.936;4.654;2023-06-14T01:23:33;8.45;;;5.97;;
26335;SDS011;14047;50.936;4.654;2023-06-14T01:26:00;10.55;;;6.43;;
26335;SDS011;14047;50.936;4.654;2023-06-14T01:28:30;12.18;;;6.60;;
26335;SDS011;14047;50.936;4.654;2023-06-14T01:31:00;8.90;;;5.82;;
26335;SDS011;14047;50.936;4.654;2023-06-14T01:33:32;9.98;;;6.90;;
26335;SDS011;14047;50.936;4.654;2023-06-14T01:36:00;12.20;;;7.05;;
26335;SDS011;14047;50.936;4.654;2023-06-14T01:38:29;14.73;;;6.90;;
26335;SDS011;14047;50.936;4.654;2023-06-14T01:40:57;12.20;;;7.50;;
26335;SDS011;14047;50.936;4.654;2023-06-14T01:43:25;11.15;;;7.47;;
26335;SDS011;14047;50.936;4.654;2023-06-14T01:45:52;9.63;;;6.93;;
26335;SDS011;14047;50.936;4.654;2023-06-14T01:53:41;9.90;;;6.72;;
26335;SDS011;14047;50.936;4.654;2023-06-14T01:56:09;10.03;;;7.00;;
26335;SDS011;14047;50.936;4.654;2023-06-14T01:58:35;17.15;;;6.90;;
26335;SDS011;14047;50.936;4.654;2023-06-14T02:01:01;9.10;;;7.05;;
26335;SDS011;14047;50.936;4.654;2023-06-14T02:03:27;12.65;;;7.75;;
26335;SDS011;14047;50.936;4.654;2023-06-14T02:05:53;11.60;;;7.90;;
26335;SDS011;14047;50.936;4.654;2023-06-14T02:08:20;15.68;;;7.72;;
26335;SDS011;14047;50.936;4.654;2023-06-14T02:10:47;11.25;;;7.95;;
26335;SDS011;14047;50.936;4.654;2023-06-14T02:13:13;15.55;;;8.35;;
26335;SDS011;14047;50.936;4.654;2023-06-14T02:15:40;10.38;;;7.32;;
26335;SDS011;14047;50.936;4.654;2023-06-14T02:18:09;11.02;;;7.68;;
26335;SDS011;14047;50.936;4.654;2023-06-14T02:20:35;10.65;;;8.25;;
26335;SDS011;14047;50.936;4.654;2023-06-14T02:23:01;12.68;;;7.85;;
26335;SDS011;14047;50.936;4.654;2023-06-14T02:25:30;10.52;;;8.10;;
26335;SDS011;14047;50.936;4.654;2023-06-14T02:27:56;11.88;;;7.63;;
26335;SDS011;14047;50.936;4.654;2023-06-14T02:30:22;12.38;;;7.90;;
26335;SDS011;14047;50.936;4.654;2023-06-14T02:32:49;17.45;;;7.70;;
26335;SDS011;14047;50.936;4.654;2023-06-14T02:35:16;10.43;;;8.13;;
26335;SDS011;14047;50.936;4.654;2023-06-14T02:37:42;10.88;;;7.20;;
26335;SDS011;14047;50.936;4.654;2023-06-14T02:40:08;11.77;;;7.13;;
26335;SDS011;14047;50.936;4.654;2023-06-14T02:42:35;12.68;;;8.30;;
26335;SDS011;14047;50.936;4.654;2023-06-14T02:45:03;11.15;;;8.13;;
26335;SDS011;14047;50.936;4.654;2023-06-14T02:47:30;18.85;;;8.15;;
26335;SDS011;14047;50.936;4.654;2023-06-14T02:49:56;12.27;;;8.50;;
26335;SDS011;14047;50.936;4.654;2023-06-14T02:52:22;16.30;;;8.10;;
26335;SDS011;14047;50.936;4.654;2023-06-14T02:54:50;15.10;;;7.90;;
26335;SDS011;14047;50.936;4.654;2023-06-14T02:57:16;11.70;;;7.72;;
26335;SDS011;14047;50.936;4.654;2023-06-14T02:59:42;13.73;;;8.27;;
26335;SDS011;14047;50.936;4.654;2023-06-14T03:02:08;10.13;;;8.15;;
26335;SDS011;14047;50.936;4.654;2023-06-14T03:04:37;10.90;;;8.45;;
26335;SDS011;14047;50.936;4.654;2023-06-14T03:07:07;14.20;;;7.97;;
26335;SDS011;14047;50.936;4.654;2023-06-14T03:09:40;14.35;;;8.00;;
26335;SDS011;14047;50.936;4.654;2023-06-14T03:12:09;12.13;;;8.23;;
26335;SDS011;14047;50.936;4.654;2023-06-14T03:14:36;13.57;;;8.57;;
26335;SDS011;14047;50.936;4.654;2023-06-14T03:17:04;10.35;;;8.45;;
26335;SDS011;14047;50.936;4.654;2023-06-14T03:19:31;12.13;;;8.50;;
26335;SDS011;14047;50.936;4.654;2023-06-14T03:21:57;12.70;;;8.00;;
26335;SDS011;14047;50.936;4.654;2023-06-14T03:24:25;15.52;;;8.40;;
26335;SDS011;14047;50.936;4.654;2023-06-14T03:26:54;14.35;;;9.45;;
26335;SDS011;14047;50.936;4.654;2023-06-14T03:29:20;11.13;;;8.57;;
26335;SDS011;14047;50.936;4.654;2023-06-14T03:31:57;12.68;;;8.05;;
26335;SDS011;14047;50.936;4.654;2023-06-14T03:34:25;12.73;;;8.65;;
26335;SDS011;14047;50.936;4.654;2023-06-14T03:36:52;10.25;;;8.90;;
26335;SDS011;14047;50.936;4.654;2023-06-14T03:39:18;12.90;;;8.32;;
26335;SDS011;14047;50.936;4.654;2023-06-14T03:41:45;11.02;;;9.07;;
26335;SDS011;14047;50.936;4.654;2023-06-14T03:44:13;16.02;;;9.05;;
26335;SDS011;14047;50.936;4.654;2023-06-14T03:46:41;13.82;;;9.30;;
26335;SDS011;14047;50.936;4.654;2023-06-14T03:49:08;15.18;;;9.10;;
26335;SDS011;14047;50.936;4.654;2023-06-14T03:51:34;20.05;;;9.68;;
26335;SDS011;14047;50.936;4.654;2023-06-14T03:54:01;14.32;;;9.13;;
26335;SDS011;14047;50.936;4.654;2023-06-14T03:56:27;13.50;;;9.40;;
26335;SDS011;14047;50.936;4.654;2023-06-14T03:58:53;20.75;;;9.68;;
26335;SDS011;14047;50.936;4.654;2023-06-14T04:01:22;16.40;;;8.95;;
26335;SDS011;14047;50.936;4.654;2023-06-14T04:03:52;13.98;;;10.05;;
26335;SDS011;14047;50.936;4.654;2023-06-14T04:06:18;18.55;;;10.50;;
26335;SDS011;14047;50.936;4.654;2023-06-14T04:08:45;18.15;;;9.55;;
26335;SDS011;14047;50.936;4.654;2023-06-14T04:11:11;11.25;;;8.63;;
26335;SDS011;14047;50.936;4.654;2023-06-14T04:13:37;13.73;;;9.10;;
26335;SDS011;14047;50.936;4.654;2023-06-14T04:16:04;16.83;;;8.98;;
26335;SDS011;14047;50.936;4.654;2023-06-14T04:18:33;15.40;;;10.10;;
26335;SDS011;14047;50.936;4.654;2023-06-14T04:21:00;13.18;;;8.27;;
26335;SDS011;14047;50.936;4.654;2023-06-14T04:23:27;16.10;;;8.35;;
26335;SDS011;14047;50.936;4.654;2023-06-14T04:25:53;10.30;;;8.23;;
26335;SDS011;14047;50.936;4.654;2023-06-14T04:28:21;13.07;;;8.20;;
26335;SDS011;14047;50.936;4.654;2023-06-14T04:30:54;13.18;;;7.72;;
26335;SDS011;14047;50.936;4.654;2023-06-14T04:33:20;14.23;;;8.30;;
26335;SDS011;14047;50.936;4.654;2023-06-14T04:35:46;14.65;;;7.93;;
26335;SDS011;14047;50.936;4.654;2023-06-14T04:38:14;14.02;;;9.15;;
26335;SDS011;14047;50.936;4.654;2023-06-14T04:40:41;17.70;;;7.95;;
26335;SDS011;14047;50.936;4.654;2023-06-14T04:43:14;11.65;;;8.48;;
26335;SDS011;14047;50.936;4.654;2023-06-14T04:45:43;11.95;;;8.23;;
26335;SDS011;14047;50.936;4.654;2023-06-14T04:48:12;15.65;;;8.27;;
26335;SDS011;14047;50.936;4.654;2023-06-14T04:50:38;11.32;;;8.35;;
26335;SDS011;14047;50.936;4.654;2023-06-14T04:53:06;16.02;;;8.18;;
26335;SDS011;14047;50.936;4.654;2023-06-14T04:55:33;12.48;;;8.52;;
26335;SDS011;14047;50.936;4.654;2023-06-14T04:58:01;16.00;;;8.40;;
26335;SDS011;14047;50.936;4.654;2023-06-14T05:00:28;11.43;;;8.38;;
26335;SDS011;14047;50.936;4.654;2023-06-14T05:02:55;16.42;;;8.45;;
26335;SDS011;14047;50.936;4.654;2023-06-14T05:05:22;10.02;;;7.80;;
26335;SDS011;14047;50.936;4.654;2023-06-14T05:07:49;11.10;;;8.35;;
26335;SDS011;14047;50.936;4.654;2023-06-14T05:10:16;11.45;;;8.13;;
26335;SDS011;14047;50.936;4.654;2023-06-14T05:12:42;15.77;;;8.45;;
26335;SDS011;14047;50.936;4.654;2023-06-14T05:15:09;11.60;;;8.10;;
26335;SDS011;14047;50.936;4.654;2023-06-14T05:17:35;14.68;;;8.02;;
26335;SDS011;14047;50.936;4.654;2023-06-14T05:20:02;16.13;;;8.70;;
26335;SDS011;14047;50.936;4.654;2023-06-14T05:22:29;13.18;;;7.88;;
26335;SDS011;14047;50.936;4.654;2023-06-14T05:24:55;11.50;;;7.80;;
26335;SDS011;14047;50.936;4.654;2023-06-14T05:27:21;10.93;;;8.18;;
26335;SDS011;14047;50.936;4.654;2023-06-14T05:29:47;15.60;;;8.18;;
26335;SDS011;14047;50.936;4.654;2023-06-14T05:32:13;14.52;;;8.45;;
26335;SDS011;14047;50.936;4.654;2023-06-14T05:34:39;15.88;;;8.18;;
26335;SDS011;14047;50.936;4.654;2023-06-14T05:37:05;15.27;;;8.18;;
26335;SDS011;14047;50.936;4.654;2023-06-14T05:39:32;12.63;;;8.18;;
26335;SDS011;14047;50.936;4.654;2023-06-14T05:41:58;17.17;;;8.65;;
26335;SDS011;14047;50.936;4.654;2023-06-14T05:44:24;14.60;;;8.40;;
26335;SDS011;14047;50.936;4.654;2023-06-14T05:46:50;13.52;;;8.48;;
26335;SDS011;14047;50.936;4.654;2023-06-14T05:49:16;20.45;;;8.52;;
26335;SDS011;14047;50.936;4.654;2023-06-14T05:51:44;18.13;;;8.48;;
26335;SDS011;14047;50.936;4.654;2023-06-14T05:54:10;16.25;;;8.73;;
26335;SDS011;14047;50.936;4.654;2023-06-14T05:56:36;20.17;;;8.35;;
26335;SDS011;14047;50.936;4.654;2023-06-14T05:59:02;23.20;;;8.57;;
26335;SDS011;14047;50.936;4.654;2023-06-14T06:01:28;16.73;;;8.25;;
26335;SDS011;14047;50.936;4.654;2023-06-14T06:03:55;15.63;;;8.07;;
26335;SDS011;14047;50.936;4.654;2023-06-14T06:06:22;16.80;;;8.85;;
26335;SDS011;14047;50.936;4.654;2023-06-14T06:08:48;14.10;;;8.70;;
26335;SDS011;14047;50.936;4.654;2023-06-14T06:11:13;18.02;;;8.98;;
26335;SDS011;14047;50.936;4.654;2023-06-14T06:13:40;19.58;;;9.23;;
26335;SDS011;14047;50.936;4.654;2023-06-14T06:16:06;14.60;;;8.80;;
26335;SDS011;14047;50.936;4.654;2023-06-14T06:18:32;16.55;;;9.23;;
26335;SDS011;14047;50.936;4.654;2023-06-14T06:20:59;13.13;;;8.45;;
26335;SDS011;14047;50.936;4.654;2023-06-14T06:23:26;19.55;;;8.48;;
26335;SDS011;14047;50.936;4.654;2023-06-14T06:25:52;15.48;;;8.75;;
26335;SDS011;14047;50.936;4.654;2023-06-14T06:28:18;11.38;;;8.55;;
26335;SDS011;14047;50.936;4.654;2023-06-14T06:30:45;18.58;;;8.90;;
26335;SDS011;14047;50.936;4.654;2023-06-14T06:33:11;14.23;;;8.60;;
26335;SDS011;14047;50.936;4.654;2023-06-14T06:35:38;13.93;;;8.60;;
26335;SDS011;14047;50.936;4.654;2023-06-14T06:38:04;13.52;;;8.43;;
26335;SDS011;14047;50.936;4.654;2023-06-14T06:40:30;15.60;;;9.10;;
26335;SDS011;14047;50.936;4.654;2023-06-14T06:42:56;16.55;;;8.82;;
26335;SDS011;14047;50.936;4.654;2023-06-14T06:45:26;11.35;;;8.30;;
26335;SDS011;14047;50.936;4.654;2023-06-14T06:47:51;16.23;;;8.40;;
26335;SDS011;14047;50.936;4.654;2023-06-14T06:50:18;17.35;;;8.52;;
26335;SDS011;14047;50.936;4.654;2023-06-14T06:52:45;15.85;;;8.38;;
26335;SDS011;14047;50.936;4.654;2023-06-14T06:55:11;12.82;;;7.97;;
26335;SDS011;14047;50.936;4.654;2023-06-14T06:57:37;14.05;;;8.02;;
26335;SDS011;14047;50.936;4.654;2023-06-14T07:00:03;11.50;;;7.38;;
26335;SDS011;14047;50.936;4.654;2023-06-14T07:02:33;17.27;;;8.20;;
26335;SDS011;14047;50.936;4.654;2023-06-14T07:04:59;15.63;;;7.97;;
26335;SDS011;14047;50.936;4.654;2023-06-14T07:07:25;12.07;;;7.78;;
26335;SDS011;14047;50.936;4.654;2023-06-14T07:09:51;12.48;;;6.97;;
26335;SDS011;14047;50.936;4.654;2023-06-14T07:12:17;23.95;;;7.07;;
26335;SDS011;14047;50.936;4.654;2023-06-14T07:14:43;13.23;;;7.70;;
26335;SDS011;14047;50.936;4.654;2023-06-14T07:17:10;16.05;;;8.00;;
26335;SDS011;14047;50.936;4.654;2023-06-14T07:19:37;12.73;;;7.53;;
26335;SDS011;14047;50.936;4.654;2023-06-14T07:22:03;9.73;;;6.80;;
26335;SDS011;14047;50.936;4.654;2023-06-14T07:24:29;10.50;;;6.65;;
26335;SDS011;14047;50.936;4.654;2023-06-14T07:26:55;11.57;;;7.25;;
26335;SDS011;14047;50.936;4.654;2023-06-14T07:29:21;14.73;;;7.15;;
26335;SDS011;14047;50.936;4.654;2023-06-14T07:31:47;10.10;;;7.13;;
26335;SDS011;14047;50.936;4.654;2023-06-14T07:34:13;14.23;;;6.65;;
26335;SDS011;14047;50.936;4.654;2023-06-14T07:36:40;13.77;;;7.32;;
26335;SDS011;14047;50.936;4.654;2023-06-14T07:39:06;11.85;;;6.50;;
26335;SDS011;14047;50.936;4.654;2023-06-14T07:41:32;10.65;;;6.93;;
26335;SDS011;14047;50.936;4.654;2023-06-14T07:43:58;12.13;;;6.70;;
26335;SDS011;14047;50.936;4.654;2023-06-14T07:46:24;12.05;;;6.13;;
26335;SDS011;14047;50.936;4.654;2023-06-14T07:48:50;12.43;;;7.10;;
26335;SDS011;14047;50.936;4.654;2023-06-14T07:51:16;11.57;;;6.38;;
26335;SDS011;14047;50.936;4.654;2023-06-14T07:53:42;12.10;;;6.63;;
26335;SDS011;14047;50.936;4.654;2023-06-14T07:56:08;12.30;;;6.90;;
26335;SDS011;14047;50.936;4.654;2023-06-14T07:58:34;8.60;;;6.22;;
26335;SDS011;14047;50.936;4.654;2023-06-14T08:01:00;14.73;;;6.45;;
26335;SDS011;14047;50.936;4.654;2023-06-14T08:03:31;11.00;;;6.95;;
26335;SDS011;14047;50.936;4.654;2023-06-14T08:05:57;9.50;;;6.60;;
26335;SDS011;14047;50.936;4.654;2023-06-14T08:08:23;11.18;;;6.50;;
26335;SDS011;14047;50.936;4.654;2023-06-14T08:10:50;12.88;;;6.65;;
26335;SDS011;14047;50.936;4.654;2023-06-14T08:13:16;13.85;;;6.72;;
26335;SDS011;14047;50.936;4.654;2023-06-14T08:15:42;9.40;;;6.50;;
26335;SDS011;14047;50.936;4.654;2023-06-14T08:18:08;13.95;;;6.22;;
26335;SDS011;14047;50.936;4.654;2023-06-14T08:20:34;9.88;;;6.78;;
26335;SDS011;14047;50.936;4.654;2023-06-14T08:23:01;11.95;;;6.75;;
26335;SDS011;14047;50.936;4.654;2023-06-14T08:25:30;17.92;;;6.15;;
26335;SDS011;14047;50.936;4.654;2023-06-14T08:27:56;13.32;;;6.53;;
26335;SDS011;14047;50.936;4.654;2023-06-14T08:30:22;12.18;;;7.05;;
26335;SDS011;14047;50.936;4.654;2023-06-14T08:32:48;12.93;;;6.38;;
26335;SDS011;14047;50.936;4.654;2023-06-14T08:35:21;14.73;;;6.22;;
26335;SDS011;14047;50.936;4.654;2023-06-14T08:37:47;15.52;;;6.78;;
26335;SDS011;14047;50.936;4.654;2023-06-14T08:40:19;14.82;;;6.95;;
26335;SDS011;14047;50.936;4.654;2023-06-14T08:42:52;11.02;;;6.25;;
26335;SDS011;14047;50.936;4.654;2023-06-14T08:45:23;10.15;;;6.03;;
26335;SDS011;14047;50.936;4.654;2023-06-14T08:47:50;11.88;;;6.82;;
26335;SDS011;14047;50.936;4.654;2023-06-14T08:50:23;17.27;;;7.43;;
26335;SDS011;14047;50.936;4.654;2023-06-14T08:52:56;13.32;;;6.00;;
26335;SDS011;14047;50.936;4.654;2023-06-14T08:55:27;12.68;;;6.75;;
26335;SDS011;14047;50.936;4.654;2023-06-14T08:57:57;14.30;;;6.13;;
26335;SDS011;14047;50.936;4.654;2023-06-14T09:00:24;15.18;;;6.38;;
26335;SDS011;14047;50.936;4.654;2023-06-14T09:02:52;8.05;;;5.70;;
26335;SDS011;14047;50.936;4.654;2023-06-14T09:05:26;13.80;;;6.15;;
26335;SDS011;14047;50.936;4.654;2023-06-14T09:07:53;7.63;;;5.72;;
26335;SDS011;14047;50.936;4.654;2023-06-14T09:10:26;9.55;;;4.93;;
26335;SDS011;14047;50.936;4.654;2023-06-14T09:12:53;9.23;;;5.75;;
26335;SDS011;14047;50.936;4.654;2023-06-14T09:15:20;12.85;;;6.03;;
26335;SDS011;14047;50.936;4.654;2023-06-14T09:17:46;13.82;;;5.95;;
26335;SDS011;14047;50.936;4.654;2023-06-14T09:20:13;10.35;;;6.00;;
26335;SDS011;14047;50.936;4.654;2023-06-14T09:22:43;13.48;;;6.40;;
26335;SDS011;14047;50.936;4.654;2023-06-14T09:25:09;10.00;;;5.15;;
26335;SDS011;14047;50.936;4.654;2023-06-14T09:27:35;10.98;;;5.82;;
26335;SDS011;14047;50.936;4.654;2023-06-14T09:30:06;10.38;;;5.70;;
26335;SDS011;14047;50.936;4.654;2023-06-14T09:32:37;9.38;;;5.65;;
26335;SDS011;14047;50.936;4.654;2023-06-14T09:35:09;7.63;;;5.57;;
26335;SDS011;14047;50.936;4.654;2023-06-14T09:37:38;18.08;;;5.18;;
26335;SDS011;14047;50.936;4.654;2023-06-14T09:40:05;10.90;;;5.30;;
26335;SDS011;14047;50.936;4.654;2023-06-14T09:42:32;13.15;;;5.20;;
26335;SDS011;14047;50.936;4.654;2023-06-14T09:45:01;10.77;;;4.85;;
26335;SDS011;14047;50.936;4.654;2023-06-14T09:47:31;8.77;;;4.90;;
26335;SDS011;14047;50.936;4.654;2023-06-14T09:49:57;7.80;;;4.93;;
26335;SDS011;14047;50.936;4.654;2023-06-14T09:52:24;8.88;;;4.70;;
26335;SDS011;14047;50.936;4.654;2023-06-14T09:54:54;8.30;;;4.13;;
26335;SDS011;14047;50.936;4.654;2023-06-14T09:57:21;16.58;;;5.20;;
26335;SDS011;14047;50.936;4.654;2023-06-14T09:59:49;13.02;;;4.75;;
26335;SDS011;14047;50.936;4.654;2023-06-14T10:02:36;10.93;;;4.45;;
26335;SDS011;14047;50.936;4.654;2023-06-14T10:05:07;11.48;;;4.43;;
26335;SDS011;14047;50.936;4.654;2023-06-14T10:07:40;12.90;;;5.13;;
26335;SDS011;14047;50.936;4.654;2023-06-14T10:10:21;8.38;;;4.13;;
26335;SDS011;14047;50.936;4.654;2023-06-14T10:12:50;8.75;;;4.28;;
26335;SDS011;14047;50.936;4.654;2023-06-14T10:15:32;9.63;;;4.75;;
26335;SDS011;14047;50.936;4.654;2023-06-14T10:23:17;9.50;;;4.05;;
26335;SDS011;14047;50.936;4.654;2023-06-14T10:25:49;9.73;;;4.75;;
26335;SDS011;14047;50.936;4.654;2023-06-14T10:28:19;8.68;;;4.00;;
26335;SDS011;14047;50.936;4.654;2023-06-14T10:31:09;19.02;;;4.70;;
26335;SDS011;14047;50.936;4.654;2023-06-14T10:33:38;9.43;;;4.28;;
26335;SDS011;14047;50.936;4.654;2023-06-14T10:41:41;10.50;;;4.32;;
26335;SDS011;14047;50.936;4.654;2023-06-14T10:46:40;9.23;;;4.75;;
26335;SDS011;14047;50.936;4.654;2023-06-14T10:49:11;7.07;;;3.70;;
26335;SDS011;14047;50.936;4.654;2023-06-14T10:51:45;5.28;;;3.28;;
26335;SDS011;14047;50.936;4.654;2023-06-14T10:54:15;8.48;;;3.80;;
26335;SDS011;14047;50.936;4.654;2023-06-14T10:56:49;5.05;;;3.40;;
26335;SDS011;14047;50.936;4.654;2023-06-14T10:59:17;9.02;;;4.13;;
26335;SDS011;14047;50.936;4.654;2023-06-14T11:01:53;15.13;;;4.03;;
26335;SDS011;14047;50.936;4.654;2023-06-14T11:04:34;13.23;;;3.70;;
26335;SDS011;14047;50.936;4.654;2023-06-14T11:07:21;12.38;;;4.07;;
26335;SDS011;14047;50.936;4.654;2023-06-14T11:13:03;13.63;;;3.63;;
26335;SDS011;14047;50.936;4.654;2023-06-14T11:15:30;17.60;;;4.10;;
26335;SDS011;14047;50.936;4.654;2023-06-14T11:18:00;9.10;;;3.45;;
26335;SDS011;14047;50.936;4.654;2023-06-14T11:20:30;12.40;;;3.42;;
26335;SDS011;14047;50.936;4.654;2023-06-14T11:22:57;7.10;;;3.58;;
26335;SDS011;14047;50.936;4.654;2023-06-14T11:25:24;8.18;;;3.63;;
26335;SDS011;14047;50.936;4.654;2023-06-14T11:27:50;7.10;;;3.38;;
26335;SDS011;14047;50.936;4.654;2023-06-14T11:30:17;9.32;;;3.63;;
26335;SDS011;14047;50.936;4.654;2023-06-14T11:32:46;9.77;;;3.53;;
26335;SDS011;14047;50.936;4.654;2023-06-14T11:35:13;8.02;;;3.50;;
26335;SDS011;14047;50.936;4.654;2023-06-14T11:37:40;7.28;;;3.30;;
26335;SDS011;14047;50.936;4.654;2023-06-14T11:40:07;12.63;;;3.55;;
26335;SDS011;14047;50.936;4.654;2023-06-14T11:42:35;10.52;;;2.97;;
26335;SDS011;14047;50.936;4.654;2023-06-14T11:45:02;8.75;;;3.70;;
26335;SDS011;14047;50.936;4.654;2023-06-14T11:47:34;5.55;;;3.10;;
26335;SDS011;14047;50.936;4.654;2023-06-14T11:50:04;7.55;;;3.40;;
26335;SDS011;14047;50.936;4.654;2023-06-14T11:52:32;12.32;;;3.60;;
26335;SDS011;14047;50.936;4.654;2023-06-14T11:54:58;11.20;;;3.75;;
26335;SDS011;14047;50.936;4.654;2023-06-14T11:57:24;9.75;;;3.40;;
26335;SDS011;14047;50.936;4.654;2023-06-14T11:59:51;7.40;;;3.13;;
26335;SDS011;14047;50.936;4.654;2023-06-14T12:02:18;5.15;;;2.90;;
26335;SDS011;14047;50.936;4.654;2023-06-14T12:04:47;19.98;;;3.88;;
26335;SDS011;14047;50.936;4.654;2023-06-14T12:07:14;10.52;;;3.13;;
26335;SDS011;14047;50.936;4.654;2023-06-14T12:09:43;8.43;;;3.75;;
26335;SDS011;14047;50.936;4.654;2023-06-14T12:12:34;6.32;;;2.97;;
26335;SDS011;14047;50.936;4.654;2023-06-14T12:15:05;6.80;;;2.95;;
26335;SDS011;14047;50.936;4.654;2023-06-14T12:17:33;5.72;;;3.50;;
26335;SDS011;14047;50.936;4.654;2023-06-14T12:20:04;9.88;;;3.03;;
26335;SDS011;14047;50.936;4.654;2023-06-14T12:25:35;10.73;;;3.10;;
26335;SDS011;14047;50.936;4.654;2023-06-14T12:28:08;8.57;;;2.92;;
26335;SDS011;14047;50.936;4.654;2023-06-14T12:30:35;6.10;;;2.80;;
26335;SDS011;14047;50.936;4.654;2023-06-14T12:33:02;19.95;;;4.00;;
26335;SDS011;14047;50.936;4.654;2023-06-14T12:35:29;9.35;;;3.95;;
26335;SDS011;14047;50.936;4.654;2023-06-14T12:37:55;7.95;;;3.30;;
26335;SDS011;14047;50.936;4.654;2023-06-14T12:40:21;5.22;;;2.72;;
26335;SDS011;14047;50.936;4.654;2023-06-14T12:42:48;5.43;;;2.88;;
26335;SDS011;14047;50.936;4.654;2023-06-14T12:45:14;6.50;;;2.25;;
26335;SDS011;14047;50.936;4.654;2023-06-14T12:47:40;8.25;;;2.30;;
26335;SDS011;14047;50.936;4.654;2023-06-14T12:50:06;6.18;;;2.65;;
26335;SDS011;14047;50.936;4.654;2023-06-14T12:52:33;7.80;;;2.88;;
26335;SDS011;14047;50.936;4.654;2023-06-14T12:55:02;5.45;;;2.50;;
26335;SDS011;14047;50.936;4.654;2023-06-14T12:57:29;7.32;;;2.35;;
26335;SDS011;14047;50.936;4.654;2023-06-14T12:59:55;9.63;;;2.55;;
26335;SDS011;14047;50.936;4.654;2023-06-14T13:02:21;5.55;;;2.17;;
26335;SDS011;14047;50.936;4.654;2023-06-14T13:04:50;7.25;;;2.50;;
26335;SDS011;14047;50.936;4.654;2023-06-14T13:07:16;8.45;;;1.85;;
26335;SDS011;14047;50.936;4.654;2023-06-14T13:09:43;4.20;;;2.10;;
26335;SDS011;14047;50.936;4.654;2023-06-14T13:12:09;4.72;;;1.90;;
26335;SDS011;14047;50.936;4.654;2023-06-14T13:14:39;3.08;;;1.80;;
26335;SDS011;14047;50.936;4.654;2023-06-14T13:17:07;5.47;;;1.90;;
26335;SDS011;14047;50.936;4.654;2023-06-14T13:19:35;11.25;;;2.33;;
26335;SDS011;14047;50.936;4.654;2023-06-14T13:22:01;3.33;;;2.00;;
26335;SDS011;14047;50.936;4.654;2023-06-14T13:24:27;4.30;;;1.60;;
26335;SDS011;14047;50.936;4.654;2023-06-14T13:26:55;3.90;;;1.83;;
26335;SDS011;14047;50.936;4.654;2023-06-14T13:29:22;2.10;;;1.40;;
26335;SDS011;14047;50.936;4.654;2023-06-14T13:31:48;6.70;;;1.63;;
26335;SDS011;14047;50.936;4.654;2023-06-14T13:34:15;9.50;;;1.90;;
26335;SDS011;14047;50.936;4.654;2023-06-14T13:36:41;3.20;;;1.70;;
26335;SDS011;14047;50.936;4.654;2023-06-14T13:39:07;7.78;;;1.20;;
26335;SDS011;14047;50.936;4.654;2023-06-14T13:41:33;5.18;;;1.52;;
26335;SDS011;14047;50.936;4.654;2023-06-14T13:44:00;4.25;;;2.40;;
26335;SDS011;14047;50.936;4.654;2023-06-14T13:46:30;4.88;;;1.40;;
26335;SDS011;14047;50.936;4.654;2023-06-14T13:48:57;6.07;;;1.67;;
26335;SDS011;14047;50.936;4.654;2023-06-14T13:51:26;8.63;;;1.30;;
26335;SDS011;14047;50.936;4.654;2023-06-14T13:53:53;4.88;;;1.27;;
26335;SDS011;14047;50.936;4.654;2023-06-14T13:56:20;4.63;;;1.40;;
26335;SDS011;14047;50.936;4.654;2023-06-14T13:58:48;3.15;;;1.40;;
26335;SDS011;14047;50.936;4.654;2023-06-14T14:01:14;3.05;;;1.52;;
26335;SDS011;14047;50.936;4.654;2023-06-14T14:03:40;10.30;;;1.70;;
26335;SDS011;14047;50.936;4.654;2023-06-14T14:06:06;5.05;;;1.45;;
26335;SDS011;14047;50.936;4.654;2023-06-14T14:08:32;3.90;;;1.52;;
26335;SDS011;14047;50.936;4.654;2023-06-14T14:10:58;7.97;;;1.73;;
26335;SDS011;14047;50.936;4.654;2023-06-14T14:13:24;6.18;;;1.48;;
26335;SDS011;14047;50.936;4.654;2023-06-14T14:15:50;3.50;;;1.60;;
26335;SDS011;14047;50.936;4.654;2023-06-14T14:18:17;3.28;;;1.60;;
26335;SDS011;14047;50.936;4.654;2023-06-14T14:20:46;3.63;;;1.70;;
26335;SDS011;14047;50.936;4.654;2023-06-14T14:23:12;8.63;;;1.70;;
26335;SDS011;14047;50.936;4.654;2023-06-14T14:25:38;3.97;;;1.55;;
26335;SDS011;14047;50.936;4.654;2023-06-14T14:28:04;2.42;;;1.73;;
26335;SDS011;14047;50.936;4.654;2023-06-14T14:30:30;3.05;;;1.63;;
26335;SDS011;14047;50.936;4.654;2023-06-14T14:32:56;2.95;;;1.50;;
26335;SDS011;14047;50.936;4.654;2023-06-14T14:35:22;5.25;;;1.65;;
26335;SDS011;14047;50.936;4.654;2023-06-14T14:37:49;6.40;;;2.03;;
26335;SDS011;14047;50.936;4.654;2023-06-14T14:40:15;6.20;;;1.80;;
26335;SDS011;14047;50.936;4.654;2023-06-14T14:42:41;8.00;;;1.90;;
26335;SDS011;14047;50.936;4.654;2023-06-14T14:45:07;4.45;;;1.33;;
26335;SDS011;14047;50.936;4.654;2023-06-14T14:47:34;4.68;;;1.70;;
26335;SDS011;14047;50.936;4.654;2023-06-14T14:50:00;5.28;;;1.70;;
26335;SDS011;14047;50.936;4.654;2023-06-14T14:52:26;4.85;;;1.80;;
26335;SDS011;14047;50.936;4.654;2023-06-14T14:54:52;4.13;;;1.88;;
26335;SDS011;14047;50.936;4.654;2023-06-14T14:57:19;3.05;;;1.60;;
26335;SDS011;14047;50.936;4.654;2023-06-14T14:59:46;2.08;;;1.60;;
26335;SDS011;14047;50.936;4.654;2023-06-14T15:02:12;9.65;;;1.42;;
26335;SDS011;14047;50.936;4.654;2023-06-14T15:04:38;5.03;;;2.08;;
26335;SDS011;14047;50.936;4.654;2023-06-14T15:07:04;5.80;;;1.70;;
26335;SDS011;14047;50.936;4.654;2023-06-14T15:09:31;4.97;;;2.00;;